sensor_id;sensor_type;location;lat;lon;timestamp;temperature;humidity
44271;DHT22;29963;44.594;11.368;2023-04-25T00:02:00;14.50;99.90
44271;DHT22;29963;44.594;11.368;2023-04-25T00:04:26;14.50;99.90
44271;DHT22;29963;44.594;11.368;2023-04-25T00:06:55;14.40;99.90
44271;DHT22;29963;44.594;11.368;2023-04-25T00:09:22;14.40;99.90
44271;DHT22;29963;44.594;11.368;2023-04-25T00:11:47;14.50;99.90
44271;DHT22;29963;44.594;11.368;2023-04-25T00:14:13;14.50;99.90
44271;DHT22;29963;44.594;11.368;2023-04-25T00:16:39;14.40;99.90
44271;DHT22;29963;44.594;11.368;2023-04-25T00:19:06;14.40;99.90
44271;DHT22;29963;44.594;11.368;2023-04-25T00:21:33;14.30;99.90
44271;DHT22;29963;44.594;11.368;2023-04-25T00:23:59;14.30;99.90
44271;DHT22;29963;44.594;11.368;2023-04-25T00:26:25;14.30;99.90
44271;DHT22;29963;44.594;11.368;2023-04-25T00:28:51;14.30;99.90
44271;DHT22;29963;44.594;11.368;2023-04-25T00:31:16;14.40;99.90
44271;DHT22;29963;44.594;11.368;2023-04-25T00:33:42;14.30;99.90
44271;DHT22;29963;44.594;11.368;2023-04-25T00:36:08;14.30;99.90
44271;DHT22;29963;44.594;11.368;2023-04-25T00:38:34;14.30;99.90
44271;DHT22;29963;44.594;11.368;2023-04-25T00:40:59;14.20;99.90
44271;DHT22;29963;44.594;11.368;2023-04-25T00:43:26;14.20;99.90
44271;DHT22;29963;44.594;11.368;2023-04-25T00:45:52;14.20;99.90
44271;DHT22;29963;44.594;11.368;2023-04-25T00:48:18;14.20;99.90
44271;DHT22;29963;44.594;11.368;2023-04-25T00:50:57;14.20;99.90
44271;DHT22;29963;44.594;11.368;2023-04-25T00:53:25;14.20;99.90
44271;DHT22;29963;44.594;11.368;2023-04-25T00:55:52;14.20;99.90
44271;DHT22;29963;44.594;11.368;2023-04-25T00:58:18;14.10;99.90
44271;DHT22;29963;44.594;11.368;2023-04-25T01:00:45;14.20;99.90
44271;DHT22;29963;44.594;11.368;2023-04-25T01:03:12;14.10;99.90
44271;DHT22;29963;44.594;11.368;2023-04-25T01:05:40;14.10;99.90
44271;DHT22;29963;44.594;11.368;2023-04-25T01:08:07;14.00;99.90
44271;DHT22;29963;44.594;11.368;2023-04-25T01:10:32;14.00;99.90
44271;DHT22;29963;44.594;11.368;2023-04-25T01:12:58;14.00;99.90
44271;DHT22;29963;44.594;11.368;2023-04-25T01:15:23;14.00;99.90
44271;DHT22;29963;44.594;11.368;2023-04-25T01:17:49;14.00;99.90
44271;DHT22;29963;44.594;11.368;2023-04-25T01:20:15;14.00;99.90
44271;DHT22;29963;44.594;11.368;2023-04-25T01:22:42;14.00;99.90
44271;DHT22;29963;44.594;11.368;2023-04-25T01:25:08;14.10;99.90
44271;DHT22;29963;44.594;11.368;2023-04-25T01:27:36;14.00;99.90
44271;DHT22;29963;44.594;11.368;2023-04-25T01:30:02;14.10;99.90
44271;DHT22;29963;44.594;11.368;2023-04-25T01:32:28;14.00;99.90
44271;DHT22;29963;44.594;11.368;2023-04-25T01:34:54;14.10;99.90
44271;DHT22;29963;44.594;11.368;2023-04-25T01:37:20;14.10;99.90
44271;DHT22;29963;44.594;11.368;2023-04-25T01:39:45;14.00;99.90
44271;DHT22;29963;44.594;11.368;2023-04-25T01:42:13;14.00;99.90
44271;DHT22;29963;44.594;11.368;2023-04-25T01:44:38;14.00;99.90
44271;DHT22;29963;44.594;11.368;2023-04-25T01:47:04;14.00;99.90
44271;DHT22;29963;44.594;11.368;2023-04-25T01:49:29;14.00;99.90
44271;DHT22;29963;44.594;11.368;2023-04-25T01:51:55;14.00;99.90
44271;DHT22;29963;44.594;11.368;2023-04-25T01:54:21;14.00;99.90
44271;DHT22;29963;44.594;11.368;2023-04-25T01:56:50;14.00;99.90
44271;DHT22;29963;44.594;11.368;2023-04-25T01:59:16;13.90;99.90
44271;DHT22;29963;44.594;11.368;2023-04-25T02:01:43;13.90;99.90
44271;DHT22;29963;44.594;11.368;2023-04-25T02:04:09;13.90;99.90
44271;DHT22;29963;44.594;11.368;2023-04-25T02:06:34;13.90;99.90
44271;DHT22;29963;44.594;11.368;2023-04-25T02:09:00;13.80;99.90
44271;DHT22;29963;44.594;11.368;2023-04-25T02:11:25;13.80;99.90
44271;DHT22;29963;44.594;11.368;2023-04-25T02:13:51;13.90;99.90
44271;DHT22;29963;44.594;11.368;2023-04-25T02:16:16;13.80;99.90
44271;DHT22;29963;44.594;11.368;2023-04-25T02:18:43;13.80;99.90
44271;DHT22;29963;44.594;11.368;2023-04-25T02:21:10;13.80;99.90
44271;DHT22;29963;44.594;11.368;2023-04-25T02:23:36;13.70;99.90
44271;DHT22;29963;44.594;11.368;2023-04-25T02:26:02;13.60;99.90
44271;DHT22;29963;44.594;11.368;2023-04-25T02:28:28;13.60;99.90
44271;DHT22;29963;44.594;11.368;2023-04-25T02:30:53;13.50;99.90
44271;DHT22;29963;44.594;11.368;2023-04-25T02:33:19;13.50;99.90
44271;DHT22;29963;44.594;11.368;2023-04-25T02:35:46;13.50;99.90
44271;DHT22;29963;44.594;11.368;2023-04-25T02:38:11;13.60;99.90
44271;DHT22;29963;44.594;11.368;2023-04-25T02:40:37;13.60;99.90
44271;DHT22;29963;44.594;11.368;2023-04-25T02:43:03;13.60;99.90
44271;DHT22;29963;44.594;11.368;2023-04-25T02:45:28;13.60;99.90
44271;DHT22;29963;44.594;11.368;2023-04-25T02:47:54;13.70;99.90
44271;DHT22;29963;44.594;11.368;2023-04-25T02:50:19;13.70;99.90
44271;DHT22;29963;44.594;11.368;2023-04-25T02:52:45;13.60;99.90
44271;DHT22;29963;44.594;11.368;2023-04-25T02:55:12;13.60;99.90
44271;DHT22;29963;44.594;11.368;2023-04-25T02:57:37;13.50;99.90
44271;DHT22;29963;44.594;11.368;2023-04-25T03:00:03;13.50;99.90
44271;DHT22;29963;44.594;11.368;2023-04-25T03:02:30;13.50;99.90
44271;DHT22;29963;44.594;11.368;2023-04-25T03:04:56;13.50;99.90
44271;DHT22;29963;44.594;11.368;2023-04-25T03:07:21;13.40;99.90
44271;DHT22;29963;44.594;11.368;2023-04-25T03:09:47;13.50;99.90
44271;DHT22;29963;44.594;11.368;2023-04-25T03:12:12;13.50;99.90
44271;DHT22;29963;44.594;11.368;2023-04-25T03:14:38;13.50;99.90
44271;DHT22;29963;44.594;11.368;2023-04-25T03:17:04;13.50;99.90
44271;DHT22;29963;44.594;11.368;2023-04-25T03:19:29;13.60;99.90
44271;DHT22;29963;44.594;11.368;2023-04-25T03:21:55;13.40;99.90
44271;DHT22;29963;44.594;11.368;2023-04-25T03:24:21;13.30;99.90
44271;DHT22;29963;44.594;11.368;2023-04-25T03:26:47;13.30;99.90
44271;DHT22;29963;44.594;11.368;2023-04-25T03:29:12;13.30;99.90
44271;DHT22;29963;44.594;11.368;2023-04-25T03:31:38;13.30;99.90
44271;DHT22;29963;44.594;11.368;2023-04-25T03:34:04;13.30;99.90
44271;DHT22;29963;44.594;11.368;2023-04-25T03:36:29;13.30;99.90
44271;DHT22;29963;44.594;11.368;2023-04-25T03:38:55;13.20;99.90
44271;DHT22;29963;44.594;11.368;2023-04-25T03:41:21;13.20;99.90
44271;DHT22;29963;44.594;11.368;2023-04-25T03:43:47;13.20;99.90
44271;DHT22;29963;44.594;11.368;2023-04-25T03:46:12;13.20;99.90
44271;DHT22;29963;44.594;11.368;2023-04-25T03:48:38;13.20;99.90
44271;DHT22;29963;44.594;11.368;2023-04-25T03:51:03;13.20;99.90
44271;DHT22;29963;44.594;11.368;2023-04-25T03:53:29;13.20;99.90
44271;DHT22;29963;44.594;11.368;2023-04-25T03:55:55;13.20;99.90
44271;DHT22;29963;44.594;11.368;2023-04-25T03:58:20;13.10;99.90
44271;DHT22;29963;44.594;11.368;2023-04-25T04:00:48;13.10;99.90
44271;DHT22;29963;44.594;11.368;2023-04-25T04:03:14;13.10;99.90
44271;DHT22;29963;44.594;11.368;2023-04-25T04:05:39;13.10;99.90
44271;DHT22;29963;44.594;11.368;2023-04-25T04:08:06;13.20;99.90
44271;DHT22;29963;44.594;11.368;2023-04-25T04:10:31;13.20;99.90
44271;DHT22;29963;44.594;11.368;2023-04-25T04:12:57;13.20;99.90
44271;DHT22;29963;44.594;11.368;2023-04-25T04:15:23;13.20;99.90
44271;DHT22;29963;44.594;11.368;2023-04-25T04:17:48;13.20;99.90
44271;DHT22;29963;44.594;11.368;2023-04-25T04:20:14;13.20;99.90
44271;DHT22;29963;44.594;11.368;2023-04-25T04:22:40;13.20;99.90
44271;DHT22;29963;44.594;11.368;2023-04-25T04:25:06;13.20;99.90
44271;DHT22;29963;44.594;11.368;2023-04-25T04:27:32;13.10;99.90
44271;DHT22;29963;44.594;11.368;2023-04-25T04:29:57;13.00;99.90
44271;DHT22;29963;44.594;11.368;2023-04-25T04:32:23;13.00;99.90
44271;DHT22;29963;44.594;11.368;2023-04-25T04:34:49;12.90;99.90
44271;DHT22;29963;44.594;11.368;2023-04-25T04:37:14;12.90;99.90
44271;DHT22;29963;44.594;11.368;2023-04-25T04:39:40;12.90;99.90
44271;DHT22;29963;44.594;11.368;2023-04-25T04:42:06;12.90;99.90
44271;DHT22;29963;44.594;11.368;2023-04-25T04:44:32;13.00;99.90
44271;DHT22;29963;44.594;11.368;2023-04-25T04:46:58;13.00;99.90
44271;DHT22;29963;44.594;11.368;2023-04-25T04:49:24;13.10;99.90
44271;DHT22;29963;44.594;11.368;2023-04-25T04:51:50;13.20;99.90
44271;DHT22;29963;44.594;11.368;2023-04-25T04:54:15;13.20;99.90
44271;DHT22;29963;44.594;11.368;2023-04-25T04:56:41;13.20;99.90
44271;DHT22;29963;44.594;11.368;2023-04-25T04:59:07;13.10;99.90
44271;DHT22;29963;44.594;11.368;2023-04-25T05:01:33;13.00;99.90
44271;DHT22;29963;44.594;11.368;2023-04-25T05:04:01;12.80;99.90
44271;DHT22;29963;44.594;11.368;2023-04-25T05:06:28;12.70;99.90
44271;DHT22;29963;44.594;11.368;2023-04-25T05:08:57;12.50;99.90
44271;DHT22;29963;44.594;11.368;2023-04-25T05:11:23;12.40;99.90
44271;DHT22;29963;44.594;11.368;2023-04-25T05:13:51;12.30;99.90
44271;DHT22;29963;44.594;11.368;2023-04-25T05:16:17;12.30;99.90
44271;DHT22;29963;44.594;11.368;2023-04-25T05:18:42;12.10;99.90
44271;DHT22;29963;44.594;11.368;2023-04-25T05:21:08;12.10;99.90
44271;DHT22;29963;44.594;11.368;2023-04-25T05:23:34;12.10;99.90
44271;DHT22;29963;44.594;11.368;2023-04-25T05:26:00;12.20;99.90
44271;DHT22;29963;44.594;11.368;2023-04-25T05:28:25;12.20;99.90
44271;DHT22;29963;44.594;11.368;2023-04-25T05:30:51;12.10;99.90
44271;DHT22;29963;44.594;11.368;2023-04-25T05:33:17;12.10;99.90
44271;DHT22;29963;44.594;11.368;2023-04-25T05:35:43;12.10;99.90
44271;DHT22;29963;44.594;11.368;2023-04-25T05:38:09;12.10;99.90
44271;DHT22;29963;44.594;11.368;2023-04-25T05:40:35;12.10;99.90
44271;DHT22;29963;44.594;11.368;2023-04-25T05:43:00;12.10;99.90
44271;DHT22;29963;44.594;11.368;2023-04-25T05:45:26;12.20;99.90
44271;DHT22;29963;44.594;11.368;2023-04-25T05:47:52;12.10;99.90
44271;DHT22;29963;44.594;11.368;2023-04-25T05:50:18;12.10;99.90
44271;DHT22;29963;44.594;11.368;2023-04-25T05:52:43;12.10;99.90
44271;DHT22;29963;44.594;11.368;2023-04-25T05:55:09;12.10;99.90
44271;DHT22;29963;44.594;11.368;2023-04-25T05:57:35;12.10;99.90
44271;DHT22;29963;44.594;11.368;2023-04-25T06:00:00;12.10;99.90
44271;DHT22;29963;44.594;11.368;2023-04-25T06:02:26;12.00;99.90
44271;DHT22;29963;44.594;11.368;2023-04-25T06:04:52;12.00;99.90
44271;DHT22;29963;44.594;11.368;2023-04-25T06:07:19;12.00;99.90
44271;DHT22;29963;44.594;11.368;2023-04-25T06:09:45;12.00;99.90
44271;DHT22;29963;44.594;11.368;2023-04-25T06:12:11;12.00;99.90
44271;DHT22;29963;44.594;11.368;2023-04-25T06:14:37;11.90;99.90
44271;DHT22;29963;44.594;11.368;2023-04-25T06:17:03;11.90;99.90
44271;DHT22;29963;44.594;11.368;2023-04-25T06:19:33;11.90;99.90
44271;DHT22;29963;44.594;11.368;2023-04-25T06:21:59;12.00;99.90
44271;DHT22;29963;44.594;11.368;2023-04-25T06:24:25;12.10;99.90
44271;DHT22;29963;44.594;11.368;2023-04-25T06:26:51;12.10;99.90
44271;DHT22;29963;44.594;11.368;2023-04-25T06:29:16;12.00;99.90
44271;DHT22;29963;44.594;11.368;2023-04-25T06:31:42;12.10;99.90
44271;DHT22;29963;44.594;11.368;2023-04-25T06:34:08;12.10;99.90
44271;DHT22;29963;44.594;11.368;2023-04-25T06:36:33;12.10;99.90
44271;DHT22;29963;44.594;11.368;2023-04-25T06:38:59;12.00;99.90
44271;DHT22;29963;44.594;11.368;2023-04-25T06:41:25;12.00;99.90
44271;DHT22;29963;44.594;11.368;2023-04-25T06:43:50;12.00;99.90
44271;DHT22;29963;44.594;11.368;2023-04-25T06:46:16;12.00;99.90
44271;DHT22;29963;44.594;11.368;2023-04-25T06:48:41;12.10;99.90
44271;DHT22;29963;44.594;11.368;2023-04-25T06:51:07;12.10;99.90
44271;DHT22;29963;44.594;11.368;2023-04-25T06:53:33;12.10;99.90
44271;DHT22;29963;44.594;11.368;2023-04-25T06:55:58;12.10;99.90
44271;DHT22;29963;44.594;11.368;2023-04-25T06:58:24;12.10;99.90
44271;DHT22;29963;44.594;11.368;2023-04-25T07:00:51;12.10;99.90
44271;DHT22;29963;44.594;11.368;2023-04-25T07:03:17;12.10;99.90
44271;DHT22;29963;44.594;11.368;2023-04-25T07:05:42;12.20;99.90
44271;DHT22;29963;44.594;11.368;2023-04-25T07:08:08;12.20;99.90
44271;DHT22;29963;44.594;11.368;2023-04-25T07:10:34;12.20;99.90
44271;DHT22;29963;44.594;11.368;2023-04-25T07:13:00;12.30;99.90
44271;DHT22;29963;44.594;11.368;2023-04-25T07:15:26;12.30;99.90
44271;DHT22;29963;44.594;11.368;2023-04-25T07:17:51;12.40;99.90
44271;DHT22;29963;44.594;11.368;2023-04-25T07:20:17;12.40;99.90
44271;DHT22;29963;44.594;11.368;2023-04-25T07:22:43;12.40;99.90
44271;DHT22;29963;44.594;11.368;2023-04-25T07:25:09;12.50;99.90
44271;DHT22;29963;44.594;11.368;2023-04-25T07:27:35;12.50;99.90
44271;DHT22;29963;44.594;11.368;2023-04-25T07:30:01;12.60;99.90
44271;DHT22;29963;44.594;11.368;2023-04-25T07:32:26;12.60;99.90
44271;DHT22;29963;44.594;11.368;2023-04-25T07:34:52;12.70;99.90
44271;DHT22;29963;44.594;11.368;2023-04-25T07:37:18;12.70;99.90
44271;DHT22;29963;44.594;11.368;2023-04-25T07:39:44;12.70;99.90
44271;DHT22;29963;44.594;11.368;2023-04-25T07:42:12;12.70;99.90
44271;DHT22;29963;44.594;11.368;2023-04-25T07:44:38;12.60;99.90
44271;DHT22;29963;44.594;11.368;2023-04-25T07:47:08;12.60;99.90
44271;DHT22;29963;44.594;11.368;2023-04-25T07:49:34;12.60;99.90
44271;DHT22;29963;44.594;11.368;2023-04-25T07:52:01;12.60;99.90
44271;DHT22;29963;44.594;11.368;2023-04-25T07:54:27;12.70;99.90
44271;DHT22;29963;44.594;11.368;2023-04-25T07:56:53;12.90;99.90
44271;DHT22;29963;44.594;11.368;2023-04-25T07:59:19;13.00;99.90
44271;DHT22;29963;44.594;11.368;2023-04-25T08:01:44;13.20;99.90
44271;DHT22;29963;44.594;11.368;2023-04-25T08:04:10;13.40;99.90
44271;DHT22;29963;44.594;11.368;2023-04-25T08:06:36;13.60;99.90
44271;DHT22;29963;44.594;11.368;2023-04-25T08:09:02;13.70;99.90
44271;DHT22;29963;44.594;11.368;2023-04-25T08:11:28;13.90;99.90
44271;DHT22;29963;44.594;11.368;2023-04-25T08:13:54;14.00;99.90
44271;DHT22;29963;44.594;11.368;2023-04-25T08:16:19;14.00;99.90
44271;DHT22;29963;44.594;11.368;2023-04-25T08:18:45;14.10;99.90
44271;DHT22;29963;44.594;11.368;2023-04-25T08:21:11;14.10;99.90
44271;DHT22;29963;44.594;11.368;2023-04-25T08:23:38;14.00;99.90
44271;DHT22;29963;44.594;11.368;2023-04-25T08:26:03;13.80;99.90
44271;DHT22;29963;44.594;11.368;2023-04-25T08:28:30;13.70;99.90
44271;DHT22;29963;44.594;11.368;2023-04-25T08:30:56;13.50;99.90
44271;DHT22;29963;44.594;11.368;2023-04-25T08:33:21;13.40;99.90
44271;DHT22;29963;44.594;11.368;2023-04-25T08:35:47;13.40;99.90
44271;DHT22;29963;44.594;11.368;2023-04-25T08:38:13;13.40;99.90
44271;DHT22;29963;44.594;11.368;2023-04-25T08:40:39;13.50;99.90
44271;DHT22;29963;44.594;11.368;2023-04-25T08:43:06;13.60;99.90
44271;DHT22;29963;44.594;11.368;2023-04-25T08:45:39;13.60;99.90
44271;DHT22;29963;44.594;11.368;2023-04-25T08:48:10;13.70;99.90
44271;DHT22;29963;44.594;11.368;2023-04-25T08:50:42;13.90;99.90
44271;DHT22;29963;44.594;11.368;2023-04-25T08:53:12;14.00;99.90
44271;DHT22;29963;44.594;11.368;2023-04-25T08:55:44;14.20;99.90
44271;DHT22;29963;44.594;11.368;2023-04-25T08:58:11;14.40;99.90
44271;DHT22;29963;44.594;11.368;2023-04-25T09:00:36;14.60;99.90
44271;DHT22;29963;44.594;11.368;2023-04-25T09:03:03;14.80;99.90
44271;DHT22;29963;44.594;11.368;2023-04-25T09:05:29;14.90;99.90
44271;DHT22;29963;44.594;11.368;2023-04-25T09:07:54;15.00;99.90
44271;DHT22;29963;44.594;11.368;2023-04-25T09:10:22;15.20;99.90
44271;DHT22;29963;44.594;11.368;2023-04-25T09:13:03;15.40;99.90
44271;DHT22;29963;44.594;11.368;2023-04-25T09:15:31;15.50;99.90
44271;DHT22;29963;44.594;11.368;2023-04-25T09:17:57;15.50;99.90
44271;DHT22;29963;44.594;11.368;2023-04-25T09:20:23;15.50;99.90
44271;DHT22;29963;44.594;11.368;2023-04-25T09:23:01;15.60;99.90
44271;DHT22;29963;44.594;11.368;2023-04-25T09:25:37;15.60;99.90
44271;DHT22;29963;44.594;11.368;2023-04-25T09:28:06;15.60;99.90
44271;DHT22;29963;44.594;11.368;2023-04-25T09:30:33;15.70;99.90
44271;DHT22;29963;44.594;11.368;2023-04-25T09:33:07;15.70;99.90
44271;DHT22;29963;44.594;11.368;2023-04-25T09:35:40;15.80;99.90
44271;DHT22;29963;44.594;11.368;2023-04-25T09:38:14;15.80;99.90
44271;DHT22;29963;44.594;11.368;2023-04-25T09:40:44;15.80;99.90
44271;DHT22;29963;44.594;11.368;2023-04-25T09:43:20;15.80;99.90
44271;DHT22;29963;44.594;11.368;2023-04-25T09:45:46;15.90;99.90
44271;DHT22;29963;44.594;11.368;2023-04-25T09:48:20;15.90;99.90
44271;DHT22;29963;44.594;11.368;2023-04-25T09:51:09;16.00;99.90
44271;DHT22;29963;44.594;11.368;2023-04-25T09:53:40;16.20;99.90
44271;DHT22;29963;44.594;11.368;2023-04-25T09:56:09;16.30;99.90
44271;DHT22;29963;44.594;11.368;2023-04-25T09:58:38;16.30;99.90
44271;DHT22;29963;44.594;11.368;2023-04-25T10:01:06;16.40;99.90
44271;DHT22;29963;44.594;11.368;2023-04-25T10:03:33;16.50;99.90
44271;DHT22;29963;44.594;11.368;2023-04-25T10:06:00;16.60;99.90
44271;DHT22;29963;44.594;11.368;2023-04-25T10:08:32;16.70;99.90
44271;DHT22;29963;44.594;11.368;2023-04-25T10:11:03;16.70;99.90
44271;DHT22;29963;44.594;11.368;2023-04-25T10:13:29;16.80;99.90
44271;DHT22;29963;44.594;11.368;2023-04-25T10:15:57;16.90;99.90
44271;DHT22;29963;44.594;11.368;2023-04-25T10:18:28;17.00;99.90
44271;DHT22;29963;44.594;11.368;2023-04-25T10:20:55;17.10;99.90
44271;DHT22;29963;44.594;11.368;2023-04-25T10:23:22;17.20;99.90
44271;DHT22;29963;44.594;11.368;2023-04-25T10:25:50;17.40;99.90
44271;DHT22;29963;44.594;11.368;2023-04-25T10:28:16;17.70;99.90
44271;DHT22;29963;44.594;11.368;2023-04-25T10:31:01;17.80;99.90
44271;DHT22;29963;44.594;11.368;2023-04-25T10:33:38;18.00;99.90
44271;DHT22;29963;44.594;11.368;2023-04-25T10:36:30;17.90;99.90
44271;DHT22;29963;44.594;11.368;2023-04-25T10:38:58;17.90;99.90
44271;DHT22;29963;44.594;11.368;2023-04-25T10:41:32;17.90;99.90
44271;DHT22;29963;44.594;11.368;2023-04-25T10:44:10;17.90;99.90
44271;DHT22;29963;44.594;11.368;2023-04-25T10:46:36;17.90;99.90
44271;DHT22;29963;44.594;11.368;2023-04-25T10:49:03;17.90;99.90
44271;DHT22;29963;44.594;11.368;2023-04-25T10:51:32;17.90;99.90
44271;DHT22;29963;44.594;11.368;2023-04-25T10:53:59;18.00;99.90
44271;DHT22;29963;44.594;11.368;2023-04-25T10:56:29;18.00;99.90
44271;DHT22;29963;44.594;11.368;2023-04-25T11:04:06;18.20;99.90
44271;DHT22;29963;44.594;11.368;2023-04-25T11:09:29;18.40;99.90
44271;DHT22;29963;44.594;11.368;2023-04-25T11:11:56;18.40;99.90
44271;DHT22;29963;44.594;11.368;2023-04-25T11:14:22;18.40;99.90
44271;DHT22;29963;44.594;11.368;2023-04-25T11:16:56;18.40;99.90
44271;DHT22;29963;44.594;11.368;2023-04-25T11:19:23;18.40;99.90
44271;DHT22;29963;44.594;11.368;2023-04-25T11:21:50;18.30;99.90
44271;DHT22;29963;44.594;11.368;2023-04-25T11:24:16;18.30;99.90
44271;DHT22;29963;44.594;11.368;2023-04-25T11:26:43;18.30;99.90
44271;DHT22;29963;44.594;11.368;2023-04-25T11:29:09;18.30;99.90
44271;DHT22;29963;44.594;11.368;2023-04-25T11:31:34;18.30;99.90
44271;DHT22;29963;44.594;11.368;2023-04-25T11:34:00;18.40;99.90
44271;DHT22;29963;44.594;11.368;2023-04-25T11:36:26;18.40;99.90
44271;DHT22;29963;44.594;11.368;2023-04-25T11:38:53;18.40;99.90
44271;DHT22;29963;44.594;11.368;2023-04-25T11:41:22;18.50;99.90
44271;DHT22;29963;44.594;11.368;2023-04-25T11:43:48;18.50;99.90
44271;DHT22;29963;44.594;11.368;2023-04-25T11:46:15;18.60;99.90
44271;DHT22;29963;44.594;11.368;2023-04-25T11:48:42;18.50;99.90
44271;DHT22;29963;44.594;11.368;2023-04-25T11:51:08;18.60;99.90
44271;DHT22;29963;44.594;11.368;2023-04-25T11:53:34;18.60;99.90
44271;DHT22;29963;44.594;11.368;2023-04-25T11:56:00;18.70;99.90
44271;DHT22;29963;44.594;11.368;2023-04-25T11:58:27;18.80;99.90
44271;DHT22;29963;44.594;11.368;2023-04-25T12:00:52;18.80;99.90
44271;DHT22;29963;44.594;11.368;2023-04-25T12:03:18;18.90;99.90
44271;DHT22;29963;44.594;11.368;2023-04-25T12:05:45;19.00;99.90
44271;DHT22;29963;44.594;11.368;2023-04-25T12:08:15;19.00;99.90
44271;DHT22;29963;44.594;11.368;2023-04-25T12:10:43;19.00;99.90
44271;DHT22;29963;44.594;11.368;2023-04-25T12:13:23;19.00;99.90
44271;DHT22;29963;44.594;11.368;2023-04-25T12:15:49;19.10;99.90
44271;DHT22;29963;44.594;11.368;2023-04-25T12:18:19;19.10;99.90
44271;DHT22;29963;44.594;11.368;2023-04-25T12:20:46;19.10;99.90
44271;DHT22;29963;44.594;11.368;2023-04-25T12:23:11;19.20;99.90
44271;DHT22;29963;44.594;11.368;2023-04-25T12:25:39;19.10;99.90
44271;DHT22;29963;44.594;11.368;2023-04-25T12:28:16;19.10;99.90
44271;DHT22;29963;44.594;11.368;2023-04-25T12:31:03;19.10;99.90
44271;DHT22;29963;44.594;11.368;2023-04-25T12:33:34;19.10;99.90
44271;DHT22;29963;44.594;11.368;2023-04-25T12:36:01;19.20;99.90
44271;DHT22;29963;44.594;11.368;2023-04-25T12:38:38;19.20;99.90
44271;DHT22;29963;44.594;11.368;2023-04-25T12:41:06;19.20;99.90
44271;DHT22;29963;44.594;11.368;2023-04-25T12:43:32;19.30;99.90
44271;DHT22;29963;44.594;11.368;2023-04-25T12:45:57;19.20;99.90
44271;DHT22;29963;44.594;11.368;2023-04-25T12:48:23;19.20;99.90
44271;DHT22;29963;44.594;11.368;2023-04-25T12:50:50;19.20;99.90
44271;DHT22;29963;44.594;11.368;2023-04-25T12:53:20;19.20;99.90
44271;DHT22;29963;44.594;11.368;2023-04-25T12:55:46;19.20;99.90
44271;DHT22;29963;44.594;11.368;2023-04-25T12:58:16;19.30;99.90
44271;DHT22;29963;44.594;11.368;2023-04-25T13:00:42;19.30;99.90
44271;DHT22;29963;44.594;11.368;2023-04-25T13:03:09;19.30;99.90
44271;DHT22;29963;44.594;11.368;2023-04-25T13:05:36;19.40;99.90
44271;DHT22;29963;44.594;11.368;2023-04-25T13:08:02;19.50;99.90
44271;DHT22;29963;44.594;11.368;2023-04-25T13:10:27;19.50;99.90
44271;DHT22;29963;44.594;11.368;2023-04-25T13:12:53;19.50;99.90
44271;DHT22;29963;44.594;11.368;2023-04-25T13:15:19;19.50;99.90
44271;DHT22;29963;44.594;11.368;2023-04-25T13:17:45;19.50;99.90
44271;DHT22;29963;44.594;11.368;2023-04-25T13:20:11;19.50;99.90
44271;DHT22;29963;44.594;11.368;2023-04-25T13:22:39;19.40;99.90
44271;DHT22;29963;44.594;11.368;2023-04-25T13:25:07;19.50;99.90
44271;DHT22;29963;44.594;11.368;2023-04-25T13:27:33;19.60;99.90
44271;DHT22;29963;44.594;11.368;2023-04-25T13:30:00;19.60;99.90
44271;DHT22;29963;44.594;11.368;2023-04-25T13:32:33;19.50;99.90
44271;DHT22;29963;44.594;11.368;2023-04-25T13:34:59;19.50;99.90
44271;DHT22;29963;44.594;11.368;2023-04-25T13:37:24;19.50;99.90
44271;DHT22;29963;44.594;11.368;2023-04-25T13:39:50;19.40;99.90
44271;DHT22;29963;44.594;11.368;2023-04-25T13:42:16;19.30;99.90
44271;DHT22;29963;44.594;11.368;2023-04-25T13:44:42;19.20;99.90
44271;DHT22;29963;44.594;11.368;2023-04-25T13:47:07;19.10;99.90
44271;DHT22;29963;44.594;11.368;2023-04-25T13:49:33;18.90;99.90
44271;DHT22;29963;44.594;11.368;2023-04-25T13:51:58;18.90;99.90
44271;DHT22;29963;44.594;11.368;2023-04-25T13:54:24;18.80;99.90
44271;DHT22;29963;44.594;11.368;2023-04-25T13:56:49;18.70;99.90
44271;DHT22;29963;44.594;11.368;2023-04-25T13:59:15;18.70;99.90
44271;DHT22;29963;44.594;11.368;2023-04-25T14:01:41;18.70;99.90
44271;DHT22;29963;44.594;11.368;2023-04-25T14:04:08;18.70;99.90
44271;DHT22;29963;44.594;11.368;2023-04-25T14:06:34;18.70;99.90
44271;DHT22;29963;44.594;11.368;2023-04-25T14:09:00;18.80;99.90
44271;DHT22;29963;44.594;11.368;2023-04-25T14:11:26;18.80;99.90
44271;DHT22;29963;44.594;11.368;2023-04-25T14:13:52;18.80;99.90
44271;DHT22;29963;44.594;11.368;2023-04-25T14:16:17;18.70;99.90
44271;DHT22;29963;44.594;11.368;2023-04-25T14:18:43;18.70;99.90
44271;DHT22;29963;44.594;11.368;2023-04-25T14:21:08;18.50;99.90
44271;DHT22;29963;44.594;11.368;2023-04-25T14:23:35;18.50;99.90
44271;DHT22;29963;44.594;11.368;2023-04-25T14:26:01;18.30;99.90
44271;DHT22;29963;44.594;11.368;2023-04-25T14:28:26;18.20;99.90
44271;DHT22;29963;44.594;11.368;2023-04-25T14:30:52;18.10;99.90
44271;DHT22;29963;44.594;11.368;2023-04-25T14:33:18;18.00;99.90
44271;DHT22;29963;44.594;11.368;2023-04-25T14:35:43;17.90;99.90
44271;DHT22;29963;44.594;11.368;2023-04-25T14:38:09;17.80;99.90
44271;DHT22;29963;44.594;11.368;2023-04-25T14:40:35;17.70;99.90
44271;DHT22;29963;44.594;11.368;2023-04-25T14:43:00;17.70;99.90
44271;DHT22;29963;44.594;11.368;2023-04-25T14:45:26;17.70;99.90
44271;DHT22;29963;44.594;11.368;2023-04-25T14:47:51;17.60;99.90
44271;DHT22;29963;44.594;11.368;2023-04-25T14:50:17;17.60;99.90
44271;DHT22;29963;44.594;11.368;2023-04-25T14:52:42;17.50;99.90
44271;DHT22;29963;44.594;11.368;2023-04-25T14:55:09;17.50;99.90
44271;DHT22;29963;44.594;11.368;2023-04-25T14:57:35;17.50;99.90
44271;DHT22;29963;44.594;11.368;2023-04-25T15:00:01;17.50;99.90
44271;DHT22;29963;44.594;11.368;2023-04-25T15:02:27;17.50;99.90
44271;DHT22;29963;44.594;11.368;2023-04-25T15:04:53;17.50;99.90
44271;DHT22;29963;44.594;11.368;2023-04-25T15:07:20;17.50;99.90
44271;DHT22;29963;44.594;11.368;2023-04-25T15:09:47;17.60;99.90
44271;DHT22;29963;44.594;11.368;2023-04-25T15:12:13;17.70;99.90
44271;DHT22;29963;44.594;11.368;2023-04-25T15:14:39;17.80;99.90
44271;DHT22;29963;44.594;11.368;2023-04-25T15:17:04;17.90;99.90
44271;DHT22;29963;44.594;11.368;2023-04-25T15:19:30;18.00;99.90
44271;DHT22;29963;44.594;11.368;2023-04-25T15:21:55;18.10;99.90